Time;durP1;ratioP1;P1;durP2;ratioP2;P2;SDS_P1;SDS_P2;PMS_P1;PMS_P2;Temp;Humidity;BMP_temperature;BMP_pressure;BME280_temperature;BME280_humidity;BME280_pressure;Samples;Min_cycle;Max_cycle;Signal;HPM_P1;HPM_P2
2023/09/19 00:04:39;;;;;;;14.2;10.4;;;;;;;17.59;80.53;;;;;
2023/09/19 00:14:35;;;;;;;14.2;10.4;;;;;;;17.64;80.18;;;;;
2023/09/19 00:25:35;;;;;;;14.2;10.4;;;;;;;17.72;80.58;;;;;
2023/09/19 00:35:36;;;;;;;16;11.2;;;;;;;17.72;82.35;;;;;
2023/09/19 00:46:36;;;;;;;16;11.2;;;;;;;17.56;84.45;;;;;
2023/09/19 00:56:37;;;;;;;16;11.2;;;;;;;17.72;84.69;;;;;
2023/09/19 01:06:36;;;;;;;15.8;11.1;;;;;;;17.79;85.68;;;;;
2023/09/19 01:16:35;;;;;;;15.8;11.1;;;;;;;17.69;87.28;;;;;
2023/09/19 01:26:35;;;;;;;15.8;11.1;;;;;;;17.44;88.53;;;;;
2023/09/19 01:37:37;;;;;;;15.2;9.3;;;;;;;17.73;87.9;;;;;
2023/09/19 01:47:35;;;;;;;15.2;9.3;;;;;;;17.89;87.41;;;;;
2023/09/19 01:57:35;;;;;;;15.2;9.3;;;;;;;17.88;88.66;;;;;
2023/09/19 02:07:35;;;;;;;14.2;9.4;;;;;;;17.85;89.38;;;;;
2023/09/19 02:18:35;;;;;;;14.2;9.4;;;;;;;18.04;89.12;;;;;
2023/09/19 02:28:35;;;;;;;14.2;9.4;;;;;;;18.17;89.11;;;;;
2023/09/19 02:39:35;;;;;;;10.9;8.4;;;;;;;18.29;88.69;;;;;
2023/09/19 02:49:36;;;;;;;10.9;8.4;;;;;;;18.24;88.96;;;;;
2023/09/19 02:59:37;;;;;;;11.4;8.1;;;;;;;18.44;88.66;;;;;
2023/09/19 03:09:36;;;;;;;11.4;8.1;;;;;;;18.52;88.53;;;;;
2023/09/19 03:20:35;;;;;;;11.4;8.1;;;;;;;18.31;88.46;;;;;
2023/09/19 03:30:35;;;;;;;13;9.5;;;;;;;18.39;88.49;;;;;
2023/09/19 03:41:36;;;;;;;13;9.5;;;;;;;18.28;88.87;;;;;
2023/09/19 03:51:37;;;;;;;13;9.5;;;;;;;18.44;88.49;;;;;
2023/09/19 04:02:35;;;;;;;13.6;9.6;;;;;;;18.37;88.9;;;;;
2023/09/19 04:13:36;;;;;;;13.6;9.6;;;;;;;18.43;88.95;;;;;
2023/09/19 04:23:35;;;;;;;13.6;9.6;;;;;;;18.47;88.54;;;;;
2023/09/19 04:33:35;;;;;;;12.7;10.2;;;;;;;18.33;89.47;;;;;
2023/09/19 04:44:37;;;;;;;12.7;10.2;;;;;;;18.47;88.92;;;;;
2023/09/19 04:54:35;;;;;;;12.7;10.2;;;;;;;18.52;88.79;;;;;
2023/09/19 05:05:35;;;;;;;14.4;10.4;;;;;;;18.66;88.6;;;;;
2023/09/19 05:16:35;;;;;;;14.4;10.4;;;;;;;18.6;88.96;;;;;
2023/09/19 05:26:35;;;;;;;14.4;10.4;;;;;;;18.71;88.86;;;;;
2023/09/19 05:37:36;;;;;;;16.3;11.5;;;;;;;18.51;89.39;;;;;
2023/09/19 05:47:35;;;;;;;16.3;11.5;;;;;;;18.45;89.77;;;;;
2023/09/19 05:58:35;;;;;;;16.3;11.5;;;;;;;18.43;90.09;;;;;
2023/09/19 06:08:35;;;;;;;16.5;12.6;;;;;;;18.38;90.34;;;;;
2023/09/19 06:19:36;;;;;;;16.5;12.6;;;;;;;18.56;89.49;;;;;
2023/09/19 06:30:35;;;;;;;15.6;13.3;;;;;;;18.63;89.56;;;;;
2023/09/19 06:41:35;;;;;;;15.6;13.3;;;;;;;18.59;89.83;;;;;
2023/09/19 06:52:35;;;;;;;15.6;13.3;;;;;;;18.52;89.54;;;;;
2023/09/19 07:02:36;;;;;;;16.4;14.1;;;;;;;18.4;90.15;;;;;
2023/09/19 07:12:36;;;;;;;16.4;14.1;;;;;;;18.42;90.38;;;;;
2023/09/19 07:22:39;;;;;;;16.4;14.1;;;;;;;18.55;89.87;;;;;
2023/09/19 07:32:36;;;;;;;14.6;12.1;;;;;;;18.36;90.36;;;;;
2023/09/19 07:43:35;;;;;;;14.6;12.1;;;;;;;18.37;90.54;;;;;
2023/09/19 07:53:36;;;;;;;14.6;12.1;;;;;;;18.18;91.15;;;;;
2023/09/19 08:04:36;;;;;;;9.3;6.7;;;;;;;17.72;91.45;;;;;
2023/09/19 08:14:35;;;;;;;9.3;6.7;;;;;;;17.51;92.14;;;;;
2023/09/19 08:25:38;;;;;;;9.3;6.7;;;;;;;17.28;92.61;;;;;
2023/09/19 08:36:37;;;;;;;7;4.5;;;;;;;17.09;93.76;;;;;
2023/09/19 08:47:35;;;;;;;7;4.5;;;;;;;17.08;94.08;;;;;
2023/09/19 08:57:37;;;;;;;7;4.5;;;;;;;17.19;93.9;;;;;
2023/09/19 09:07:36;;;;;;;8.5;4.3;;;;;;;17.15;93.92;;;;;
2023/09/19 09:18:35;;;;;;;8.5;4.3;;;;;;;17.36;93.35;;;;;
2023/09/19 09:29:35;;;;;;;10;5.1;;;;;;;17.41;93.13;;;;;
2023/09/19 09:40:38;;;;;;;10;5.1;;;;;;;17.53;92.55;;;;;
2023/09/19 09:50:44;;;;;;;10;5.1;;;;;;;17.58;92.59;;;;;
2023/09/19 10:01:35;;;;;;;8.3;4.9;;;;;;;17.78;92.15;;;;;
2023/09/19 10:12:38;;;;;;;8.3;4.9;;;;;;;18.03;92.04;;;;;
2023/09/19 10:22:36;;;;;;;8.3;4.9;;;;;;;18.1;91.65;;;;;
2023/09/19 10:33:37;;;;;;;10.4;5.9;;;;;;;18.35;91.53;;;;;
2023/09/19 10:43:37;;;;;;;10.4;5.9;;;;;;;18.33;90.88;;;;;
2023/09/19 10:54:39;;;;;;;10.4;5.9;;;;;;;18.3;90.39;;;;;
2023/09/19 11:05:40;;;;;;;11.8;6.6;;;;;;;18.52;90.42;;;;;
2023/09/19 11:16:35;;;;;;;11.8;6.6;;;;;;;18.52;89.64;;;;;
2023/09/19 11:27:35;;;;;;;11.8;6.6;;;;;;;18.48;89.9;;;;;
2023/09/19 11:38:36;;;;;;;11.9;7.8;;;;;;;18.47;89.6;;;;;
2023/09/19 11:48:37;;;;;;;11.9;7.8;;;;;;;18.39;89.8;;;;;
2023/09/19 11:58:36;;;;;;;11.9;7.8;;;;;;;18.44;89.39;;;;;
2023/09/19 12:09:36;;;;;;;6.5;3.6;;;;;;;18.46;89.01;;;;;
2023/09/19 12:20:37;;;;;;;6.5;3.6;;;;;;;18.6;89.42;;;;;
2023/09/19 12:30:36;;;;;;;7.4;3.5;;;;;;;18.82;88.67;;;;;
2023/09/19 12:40:38;;;;;;;7.4;3.5;;;;;;;19.11;88.49;;;;;
2023/09/19 12:51:36;;;;;;;7.4;3.5;;;;;;;19.06;87.99;;;;;
2023/09/19 13:01:40;;;;;;;7.3;4.7;;;;;;;19.25;88.2;;;;;
2023/09/19 13:12:37;;;;;;;7.3;4.7;;;;;;;19.08;87.68;;;;;
2023/09/19 13:23:37;;;;;;;7.3;4.7;;;;;;;19.34;88.2;;;;;
2023/09/19 13:33:36;;;;;;;10.8;8.1;;;;;;;19.57;87.63;;;;;
2023/09/19 13:44:36;;;;;;;10.8;8.1;;;;;;;19.76;86.47;;;;;
2023/09/19 13:54:36;;;;;;;10.8;8.1;;;;;;;20.07;86.05;;;;;
2023/09/19 14:04:36;;;;;;;12.4;7.4;;;;;;;20.39;84.29;;;;;
2023/09/19 14:15:38;;;;;;;12.4;7.4;;;;;;;21.34;81.45;;;;;
2023/09/19 14:25:36;;;;;;;12.4;7.4;;;;;;;20.89;79.97;;;;;
2023/09/19 14:36:36;;;;;;;7.5;5;;;;;;;20.62;81.34;;;;;
2023/09/19 14:46:36;;;;;;;7.5;5;;;;;;;20.84;80.47;;;;;
2023/09/19 14:57:40;;;;;;;7.5;5;;;;;;;21.19;79.77;;;;;
2023/09/19 15:08:38;;;;;;;9.8;5.7;;;;;;;21.49;78.27;;;;;
2023/09/19 15:18:37;;;;;;;9.8;5.7;;;;;;;21.44;78.51;;;;;
2023/09/19 15:28:36;;;;;;;9.8;5.7;;;;;;;21.1;78.96;;;;;
2023/09/19 15:38:36;;;;;;;9.4;5.3;;;;;;;20.7;80.56;;;;;
2023/09/19 15:49:36;;;;;;;9.4;5.3;;;;;;;20.4;82.13;;;;;
2023/09/19 15:59:36;;;;;;;12.5;6;;;;;;;20.03;83.66;;;;;
2023/09/19 16:09:36;;;;;;;12.5;6;;;;;;;19.84;84.48;;;;;
2023/09/19 16:20:38;;;;;;;12.5;6;;;;;;;19.75;84.45;;;;;
2023/09/19 16:30:38;;;;;;;7.1;4;;;;;;;19.58;84.99;;;;;
2023/09/19 16:40:36;;;;;;;7.1;4;;;;;;;19.28;85.54;;;;;
2023/09/19 16:51:37;;;;;;;7.1;4;;;;;;;18.93;86.18;;;;;
2023/09/19 17:02:36;;;;;;;6.2;3.7;;;;;;;18.7;86.99;;;;;
2023/09/19 17:12:36;;;;;;;6.2;3.7;;;;;;;18.6;86.9;;;;;
2023/09/19 17:22:36;;;;;;;6.2;3.7;;;;;;;18.26;87.66;;;;;
2023/09/19 17:33:36;;;;;;;7.6;3.9;;;;;;;18.08;87.76;;;;;
2023/09/19 17:44:36;;;;;;;7.6;3.9;;;;;;;17.91;87.38;;;;;
2023/09/19 17:54:36;;;;;;;7.6;3.9;;;;;;;17.62;87.57;;;;;
2023/09/19 18:04:37;;;;;;;8.2;3.6;;;;;;;17.38;87.12;;;;;
2023/09/19 18:15:37;;;;;;;8.2;3.6;;;;;;;16.99;87.22;;;;;
2023/09/19 18:26:38;;;;;;;8.2;3.6;;;;;;;16.72;87.51;;;;;
2023/09/19 18:37:36;;;;;;;7.7;3.1;;;;;;;16.49;87.99;;;;;
2023/09/19 18:47:36;;;;;;;7.7;3.1;;;;;;;16.42;89.04;;;;;
2023/09/19 18:58:36;;;;;;;7.7;3.1;;;;;;;16.42;88.78;;;;;
2023/09/19 19:09:36;;;;;;;4.8;2.9;;;;;;;16.34;88.74;;;;;
2023/09/19 19:19:36;;;;;;;4.8;2.9;;;;;;;16.48;89.31;;;;;
2023/09/19 19:29:36;;;;;;;5.5;3;;;;;;;16.67;89.49;;;;;
2023/09/19 19:40:36;;;;;;;5.5;3;;;;;;;16.8;89.73;;;;;
2023/09/19 19:51:36;;;;;;;5.5;3;;;;;;;16.71;90.69;;;;;
2023/09/19 20:02:36;;;;;;;6;2.9;;;;;;;17.02;90.28;;;;;
2023/09/19 20:12:36;;;;;;;6;2.9;;;;;;;17.07;89.54;;;;;
2023/09/19 20:22:36;;;;;;;6;2.9;;;;;;;17.25;89.19;;;;;
2023/09/19 20:33:37;;;;;;;6.4;3.8;;;;;;;17.25;88.67;;;;;
2023/09/19 20:43:40;;;;;;;6.4;3.8;;;;;;;16.87;88.63;;;;;
2023/09/19 20:54:36;;;;;;;6.4;3.8;;;;;;;16.54;89.23;;;;;
2023/09/19 21:04:37;;;;;;;10.7;3.9;;;;;;;16.13;90.7;;;;;
2023/09/19 21:14:36;;;;;;;10.7;3.9;;;;;;;16.11;90.99;;;;;
2023/09/19 21:25:36;;;;;;;10.7;3.9;;;;;;;16.05;90.49;;;;;
2023/09/19 21:35:36;;;;;;;6.4;3.9;;;;;;;15.94;90.52;;;;;
2023/09/19 21:45:36;;;;;;;6.4;3.9;;;;;;;15.73;90.95;;;;;
2023/09/19 21:55:36;;;;;;;6.4;3.9;;;;;;;15.63;91.29;;;;;
2023/09/19 22:06:36;;;;;;;7.1;3.7;;;;;;;15.68;91.4;;;;;
2023/09/19 22:17:36;;;;;;;7.1;3.7;;;;;;;15.6;91.24;;;;;
2023/09/19 22:27:36;;;;;;;7.1;3.7;;;;;;;15.67;91.03;;;;;
2023/09/19 22:38:36;;;;;;;7.2;3.8;;;;;;;15.62;90.35;;;;;
2023/09/19 22:48:36;;;;;;;7.2;3.8;;;;;;;15.42;89.9;;;;;
2023/09/19 22:59:36;;;;;;;6.2;3.4;;;;;;;15.25;89.99;;;;;
2023/09/19 23:09:36;;;;;;;6.2;3.4;;;;;;;15.05;89.9;;;;;
2023/09/19 23:19:37;;;;;;;6.2;3.4;;;;;;;14.76;89.63;;;;;
2023/09/19 23:30:36;;;;;;;9.1;3.8;;;;;;;14.56;90.5;;;;;
2023/09/19 23:40:39;;;;;;;9.1;3.8;;;;;;;14.54;90.35;;;;;
2023/09/19 23:51:36;;;;;;;9.1;3.8;;;;;;;14.35;90.32;;;;;
